Time;durP1;ratioP1;P1;durP2;ratioP2;P2;SDS_P1;SDS_P2;PMS_P1;PMS_P2;Temp;Humidity;BMP_temperature;BMP_pressure;BME280_temperature;BME280_humidity;BME280_pressure;Samples;Min_cycle;Max_cycle;Signal;HPM_P1;HPM_P2
2023/01/01 00:01:39;;;;;;;;;;;16.80;98.10;;;15.53;49.71;100053.59;5008987;28;20405;-76
2023/01/01 00:04:09;;;;;;;13.35;4.38;;;16.80;97.80;;;15.49;50.02;100049.72;5004010;28;20385;-76
2023/01/01 00:06:35;;;;;;;10.73;4.10;;;16.80;97.70;;;15.48;49.94;100064.53;4979068;28;20037;-77
2023/01/01 00:11:45;;;;;;;10.75;4.28;;;16.90;97.20;;;15.63;49.10;100083.88;5009199;28;20417;-76
2023/01/01 00:14:11;;;;;;;10.20;3.70;;;16.90;97.10;;;15.66;49.16;100057.78;5006677;28;20041;-76
2023/01/01 00:16:36;;;;;;;10.00;3.50;;;16.90;97.30;;;15.77;48.82;100059.50;5005513;28;20041;-76
2023/01/01 00:19:02;;;;;;;12.63;3.83;;;17.00;96.90;;;15.67;49.27;100070.44;4992185;28;20031;-77
2023/01/01 00:21:28;;;;;;;10.60;3.42;;;17.00;97.20;;;15.74;48.29;100051.78;5024978;28;20042;-76
2023/01/01 00:23:54;;;;;;;12.77;3.60;;;17.00;96.50;;;15.79;48.24;100081.25;5010535;28;20038;-76
2023/01/01 00:26:19;;;;;;;9.88;3.45;;;17.10;96.50;;;15.70;49.19;100064.41;5010573;28;20041;-77
2023/01/01 00:28:46;;;;;;;9.32;3.55;;;17.00;97.00;;;15.76;48.41;100077.09;5010086;28;20523;-76
2023/01/01 00:31:19;;;;;;;9.15;3.20;;;17.00;96.50;;;15.70;48.70;100071.84;5010747;28;20038;-77
2023/01/01 00:33:50;;;;;;;12.63;3.38;;;17.00;96.60;;;15.73;48.77;100072.13;5006667;28;20038;-77
2023/01/01 00:36:17;;;;;;;13.57;3.40;;;17.00;96.60;;;15.75;48.71;100113.13;4999520;28;20039;-77
2023/01/01 00:38:44;;;;;;;;;;;17.00;96.80;;;15.71;48.91;100087.25;5014528;28;20044;-75
2023/01/01 00:41:12;;;;;;;10.55;2.97;;;17.00;96.80;;;15.71;48.81;100073.50;4995868;28;19921;-77
2023/01/01 00:43:38;;;;;;;9.27;3.35;;;17.00;96.60;;;15.79;48.78;100101.34;4993567;28;20449;-77
2023/01/01 00:46:05;;;;;;;9.15;3.05;;;17.00;96.70;;;15.85;48.40;100080.16;4998627;28;20034;-76
2023/01/01 00:48:31;;;;;;;8.40;2.90;;;17.10;96.40;;;15.79;48.69;100095.00;5006703;28;20034;-78
2023/01/01 00:50:57;;;;;;;10.35;3.25;;;17.10;96.60;;;15.79;48.62;100062.84;5007856;28;20033;-77
2023/01/01 00:53:23;;;;;;;6.95;3.03;;;17.10;96.40;;;15.84;48.18;100073.00;5008422;28;20050;-78
2023/01/01 00:55:50;;;;;;;7.13;3.10;;;17.10;96.20;;;15.92;47.95;100072.56;5008950;28;20022;-76
2023/01/01 00:58:18;;;;;;;13.30;3.20;;;17.20;96.10;;;15.93;48.31;100074.22;5005149;28;20437;-77
2023/01/01 01:00:45;;;;;;;8.82;3.00;;;17.20;96.10;;;15.85;48.43;100080.16;4998599;28;20446;-76
2023/01/01 01:03:35;;;;;;;9.00;2.97;;;17.10;96.20;;;15.78;48.85;100072.19;5006613;28;20046;-76
2023/01/01 01:06:03;;;;;;;10.93;3.05;;;17.10;96.50;;;15.79;48.99;100081.25;5008792;28;20041;-77
2023/01/01 01:08:32;;;;;;;6.72;3.00;;;17.10;96.60;;;15.78;48.75;100083.19;5014954;28;20046;-77
2023/01/01 01:11:08;;;;;;;10.82;3.55;;;17.00;96.60;;;15.75;49.02;100069.94;4996014;28;20035;-77
2023/01/01 01:13:35;;;;;;;10.60;3.40;;;17.00;96.60;;;15.72;49.19;100088.91;5009940;28;20099;-77
2023/01/01 01:16:01;;;;;;;7.90;3.20;;;17.00;96.70;;;15.74;48.85;100083.97;5013358;28;20061;-77
2023/01/01 01:18:26;;;;;;;9.40;2.80;;;16.90;96.50;;;15.74;49.37;100119.72;5009446;28;20518;-76
2023/01/01 01:20:53;;;;;;;10.45;2.80;;;17.00;96.80;;;15.79;48.46;100087.59;5010302;28;20038;-77
2023/01/01 01:23:19;;;;;;;11.75;3.22;;;17.00;96.20;;;15.74;49.58;100095.78;4995877;28;20041;-76
2023/01/01 01:25:46;;;;;;;7.97;2.70;;;17.00;96.90;;;15.74;49.28;100100.47;5008131;28;20045;-76
2023/01/01 01:28:12;;;;;;;8.30;2.95;;;17.00;97.00;;;15.66;49.43;100088.88;5002020;28;20053;-77
2023/01/01 01:30:39;;;;;;;10.38;2.65;;;17.00;97.00;;;15.61;49.66;100094.31;5012619;28;20497;-77
2023/01/01 01:33:05;;;;;;;10.50;3.33;;;16.90;97.10;;;15.70;49.25;100091.91;5016722;28;20454;-77
2023/01/01 01:35:32;;;;;;;11.82;2.85;;;16.90;96.60;;;15.68;49.49;100094.09;5008481;28;20124;-77
2023/01/01 01:37:58;;;;;;;9.93;2.70;;;16.90;97.00;;;15.71;49.48;100103.75;5009298;28;20033;-76
2023/01/01 01:40:23;;;;;;;12.90;3.10;;;17.00;96.90;;;15.65;49.66;100106.47;4997157;28;20042;-76
2023/01/01 01:42:50;;;;;;;10.48;2.63;;;16.90;97.10;;;15.64;49.67;100125.97;5002347;28;20464;-77
2023/01/01 01:45:17;;;;;;;12.13;3.20;;;16.90;97.30;;;15.63;49.63;100110.56;5001309;28;21020;-76
2023/01/01 01:47:58;;;;;;;8.25;2.65;;;16.90;97.00;;;15.65;49.39;100122.13;5009002;28;20072;-76
2023/01/01 01:50:36;;;;;;;10.80;3.10;;;16.80;96.80;;;15.62;49.14;100125.41;5018712;28;20397;-75
2023/01/01 01:53:17;;;;;;;10.15;3.10;;;16.80;96.70;;;15.70;49.06;100124.91;5012748;28;20382;-76
2023/01/01 01:55:50;;;;;;;9.52;3.38;;;16.90;96.70;;;15.77;48.45;100120.00;5007489;28;20034;-76
2023/01/01 01:58:17;;;;;;;9.73;2.83;;;17.00;96.20;;;15.68;48.99;100102.34;5009938;28;20354;-76
2023/01/01 02:00:42;;;;;;;8.90;3.28;;;16.90;96.20;;;15.61;49.19;100124.56;5012319;28;20096;-76
2023/01/01 02:03:19;;;;;;;9.75;3.22;;;16.90;96.50;;;15.66;48.67;100099.03;5009325;28;20129;-76
2023/01/01 02:05:47;;;;;;;9.02;2.85;;;16.90;96.40;;;15.58;49.20;100091.28;5008062;28;20062;-76
2023/01/01 02:08:14;;;;;;;9.40;2.97;;;16.90;96.70;;;15.46;49.74;100102.47;5026827;28;20050;-76
2023/01/01 02:10:40;;;;;;;10.10;3.13;;;16.80;96.80;;;15.49;48.99;100105.50;5008684;28;20038;-76
2023/01/01 02:13:06;;;;;;;9.43;3.10;;;16.80;96.60;;;15.46;49.41;100088.72;5010701;28;20038;-77
2023/01/01 02:15:41;;;;;;;10.15;2.92;;;16.70;96.70;;;15.46;49.35;100103.28;4996646;28;20030;-76
2023/01/01 02:18:13;;;;;;;13.20;3.13;;;16.70;96.60;;;15.33;49.99;100103.72;5010594;28;20121;-77
2023/01/01 02:20:58;;;;;;;8.32;2.72;;;16.60;97.20;;;15.23;50.65;100109.97;5009070;28;20563;-76
2023/01/01 02:24:15;;;;;;;11.73;2.78;;;16.50;97.30;;;15.33;49.73;100103.72;5011916;28;20680;-75
2023/01/01 02:27:02;;;;;;;11.90;3.30;;;16.50;96.90;;;15.32;49.53;100102.91;5001285;28;20059;-75
2023/01/01 02:29:41;;;;;;;8.50;3.00;;;16.50;96.80;;;15.37;49.28;100100.19;5003658;28;20504;-75
2023/01/01 02:32:18;;;;;;;8.38;3.53;;;16.60;96.70;;;15.40;49.00;100112.59;5006880;28;20030;-76
2023/01/01 02:34:58;;;;;;;6.80;2.77;;;16.70;96.40;;;15.46;48.76;100105.22;5006195;28;20046;-75
2023/01/01 02:37:28;;;;;;;9.27;3.17;;;16.70;96.20;;;15.39;48.96;100124.66;5010171;28;20034;-76
2023/01/01 02:39:58;;;;;;;8.68;2.90;;;16.60;96.40;;;15.50;48.32;100104.41;5008768;28;20508;-76
2023/01/01 02:42:28;;;;;;;14.05;3.15;;;16.70;95.70;;;15.51;48.25;100124.50;5004971;28;20048;-76
2023/01/01 02:44:58;;;;;;;6.65;2.97;;;16.80;95.80;;;15.50;48.22;100106.34;5007241;28;20049;-76
2023/01/01 02:47:24;;;;;;;12.40;3.17;;;16.80;95.70;;;15.54;48.06;100101.97;5001641;28;20398;-76
2023/01/01 02:50:10;;;;;;;8.25;3.10;;;16.80;95.30;;;15.58;47.38;100105.03;5006165;28;20026;-76
2023/01/01 02:53:11;;;;;;;8.93;3.38;;;16.80;95.10;;;15.50;48.10;100106.34;5008302;28;20171;-76
2023/01/01 02:56:24;;;;;;;13.10;3.05;;;16.80;95.20;;;15.35;48.01;100118.84;4994023;28;20412;-76
2023/01/01 03:02:12;;;;;;;10.43;3.42;;;16.60;95.70;;;15.31;48.24;100106.72;4997711;28;20028;-76
2023/01/01 03:05:07;;;;;;;12.75;2.90;;;16.60;95.60;;;15.28;47.95;100106.44;5006174;28;20046;-75
2023/01/01 03:08:05;;;;;;;9.30;3.00;;;16.50;95.50;;;15.28;48.47;100117.44;5011119;28;20041;-75
2023/01/01 03:11:00;;;;;;;8.88;3.30;;;16.50;95.50;;;15.23;48.04;100159.44;5010624;28;20474;-75
2023/01/01 03:13:37;;;;;;;7.20;3.00;;;16.50;95.50;;;15.28;47.46;100095.44;5005979;28;20678;-75
2023/01/01 03:16:38;;;;;;;10.23;3.10;;;16.50;94.90;;;15.28;47.81;100115.50;4993550;28;20045;-76
2023/01/01 03:19:22;;;;;;;9.23;3.00;;;16.50;95.30;;;15.41;46.92;100121.66;5022171;28;20655;-75
2023/01/01 03:22:05;;;;;;;10.70;3.03;;;16.60;94.50;;;15.41;47.32;100127.16;5009962;28;20038;-76
2023/01/01 03:24:53;;;;;;;13.55;3.42;;;16.70;94.80;;;15.36;47.45;100115.00;5017894;28;20042;-76
2023/01/01 03:27:28;;;;;;;9.32;3.15;;;16.60;94.90;;;15.22;47.36;100119.31;5005370;28;20170;-76
2023/01/01 03:29:59;;;;;;;10.02;3.08;;;16.50;94.60;;;15.34;46.93;100108.94;4996062;28;20030;-75
2023/01/01 03:35:27;;;;;;;9.68;3.03;;;16.70;93.90;;;15.37;46.88;100100.19;4998617;28;20092;-76
2023/01/01 03:37:56;;;;;;;10.50;2.60;;;16.70;94.50;;;15.33;46.92;100115.53;5009043;28;20049;-76
2023/01/01 03:40:24;;;;;;;10.30;3.13;;;16.60;94.20;;;15.34;46.73;100103.47;5007836;28;20034;-76
2023/01/01 03:42:58;;;;;;;;;;;16.60;94.10;;;15.21;47.76;100109.41;5004743;28;20042;-76
2023/01/01 03:45:34;;;;;;;12.70;3.67;;;16.50;94.80;;;15.26;46.52;100117.69;5007300;28;19917;-75
2023/01/01 03:48:00;;;;;;;7.85;2.60;;;16.50;94.00;;;15.34;46.39;100111.69;5007235;28;20404;-76
2023/01/01 03:51:02;;;;;;;9.65;2.60;;;16.60;93.70;;;15.28;46.76;100112.75;5006783;28;20042;-76
2023/01/01 03:53:40;;;;;;;9.02;2.83;;;16.60;94.30;;;15.17;46.83;100100.03;5002332;28;20029;-76
2023/01/01 03:56:18;;;;;;;8.95;2.65;;;16.40;93.90;;;15.26;45.63;100111.38;5005291;28;20393;-76
2023/01/01 03:59:34;;;;;;;8.57;2.75;;;16.50;93.10;;;15.21;46.15;100103.91;5011828;28;20474;-76
2023/01/01 04:02:07;;;;;;;8.77;2.40;;;16.50;93.30;;;15.19;45.69;100093.16;5005964;28;20109;-76
2023/01/01 04:04:34;;;;;;;9.13;3.05;;;16.40;93.00;;;15.15;46.33;100102.22;5009821;28;20134;-76
2023/01/01 04:07:00;;;;;;;7.70;1.88;;;16.50;93.50;;;15.19;45.20;100120.63;5009581;28;20541;-76
2023/01/01 04:09:34;;;;;;;7.75;2.13;;;16.40;92.60;;;15.28;45.12;100087.22;5025798;28;20048;-76
2023/01/01 04:12:01;;;;;;;8.18;2.28;;;16.50;92.50;;;15.17;45.79;100125.56;5010844;28;20034;-77
2023/01/01 04:14:41;;;;;;;7.07;2.13;;;16.40;92.80;;;14.99;46.43;100113.03;5002712;28;20064;-76
2023/01/01 04:17:09;;;;;;;8.45;2.30;;;16.30;93.10;;;14.90;47.10;100109.91;4991179;28;20050;-75
2023/01/01 04:19:35;;;;;;;;;;;16.20;93.90;;;14.78;47.49;100129.28;5000145;28;20070;-75
2023/01/01 04:22:01;;;;;;;6.30;2.45;;;16.10;94.00;;;14.65;48.03;100135.16;4997669;28;19964;-76
2023/01/01 04:24:28;;;;;;;7.28;2.75;;;16.00;94.50;;;14.59;48.30;100136.19;5006293;28;20045;-76
2023/01/01 04:26:54;;;;;;;9.07;2.60;;;15.90;94.80;;;14.47;48.77;100141.81;5010517;28;20034;-77
2023/01/01 04:29:21;;;;;;;9.27;2.47;;;15.80;95.20;;;14.45;48.65;100153.03;5002448;28;20042;-76
2023/01/01 04:31:47;;;;;;;6.85;2.30;;;15.70;95.10;;;14.34;49.84;100121.88;5005056;28;20127;-76
2023/01/01 04:34:14;;;;;;;8.07;3.25;;;15.60;95.70;;;14.41;49.09;100137.31;4975470;28;20046;-76
2023/01/01 04:36:40;;;;;;;7.13;2.33;;;15.70;95.50;;;14.46;48.65;100143.72;4991982;28;20082;-76
2023/01/01 04:39:06;;;;;;;9.80;2.20;;;15.70;95.20;;;14.44;48.51;100137.66;5004247;28;20048;-76
2023/01/01 04:41:32;;;;;;;10.20;2.65;;;15.70;95.00;;;14.36;49.11;100149.91;4995440;28;20398;-76
2023/01/01 04:43:59;;;;;;;6.45;2.00;;;15.70;95.60;;;14.17;49.52;100138.41;5005013;28;20038;-76
2023/01/01 04:46:25;;;;;;;8.30;2.20;;;15.50;95.60;;;14.19;49.68;100171.91;5007478;28;20033;-76
2023/01/01 04:48:50;;;;;;;7.65;2.30;;;15.50;96.10;;;14.16;50.16;100175.16;4993548;28;20041;-76
2023/01/01 04:51:19;;;;;;;5.38;2.05;;;15.40;96.20;;;14.14;50.03;100160.88;4992610;28;20088;-77
2023/01/01 04:53:45;;;;;;;8.30;2.42;;;15.40;96.00;;;14.15;49.99;100170.75;5016952;28;20379;-76
2023/01/01 04:56:15;;;;;;;10.13;1.90;;;15.40;96.20;;;14.27;49.03;100165.16;5009716;28;20043;-76
2023/01/01 04:58:42;;;;;;;8.43;2.10;;;15.50;95.50;;;14.23;49.63;100162.06;5011007;28;20073;-76
2023/01/01 05:01:15;;;;;;;6.72;2.10;;;15.50;95.90;;;14.31;48.87;100170.94;5010636;28;20046;-76
2023/01/01 05:03:40;;;;;;;8.52;2.40;;;15.50;95.40;;;14.29;49.41;100173.97;4999813;28;20046;-76
2023/01/01 05:06:10;;;;;;;8.48;1.92;;;15.60;95.70;;;14.30;49.10;100186.59;5002156;28;20574;-76
2023/01/01 05:08:39;;;;;;;6.93;2.00;;;15.60;95.70;;;14.23;49.84;100188.69;4993507;28;20405;-77
2023/01/01 05:11:13;;;;;;;6.65;1.95;;;15.50;96.20;;;14.18;49.67;100188.59;5009927;28;20136;-77
2023/01/01 05:13:42;;;;;;;7.70;2.13;;;15.50;96.00;;;14.17;49.63;100179.56;5005972;28;20545;-77
2023/01/01 05:16:12;;;;;;;5.40;1.60;;;15.40;95.90;;;14.31;49.09;100201.97;5002813;28;20114;-77
2023/01/01 05:18:39;;;;;;;7.25;1.75;;;15.50;95.60;;;14.29;49.34;100179.44;5003610;28;20034;-76
2023/01/01 05:21:11;;;;;;;7.28;2.08;;;15.50;95.70;;;14.29;49.28;100206.03;5000045;28;20364;-76
2023/01/01 05:23:37;;;;;;;6.05;1.85;;;15.50;95.70;;;14.35;48.97;100196.81;4997386;28;20030;-76
2023/01/01 05:26:12;;;;;;;4.95;1.67;;;15.60;95.40;;;14.30;49.34;100192.09;5001728;28;20029;-76
2023/01/01 05:28:38;;;;;;;4.63;1.73;;;15.60;95.70;;;14.31;49.36;100190.16;5004575;28;20037;-75
2023/01/01 05:31:11;;;;;;;4.40;1.80;;;15.60;95.60;;;14.31;49.40;100187.41;5013448;28;20034;-77
2023/01/01 05:33:36;;;;;;;4.53;1.73;;;15.60;95.50;;;14.36;48.97;100199.28;5001859;28;20479;-76
2023/01/01 05:36:05;;;;;;;6.95;1.70;;;15.60;95.40;;;14.31;49.63;100187.41;5007309;28;20044;-76
2023/01/01 05:38:31;;;;;;;5.63;1.55;;;15.60;95.90;;;14.29;49.40;100197.81;5008111;28;20045;-76
2023/01/01 05:40:57;;;;;;;5.80;1.75;;;15.60;95.60;;;14.46;48.66;100186.81;5009712;28;20061;-76
2023/01/01 05:43:23;;;;;;;5.63;1.50;;;15.70;95.50;;;14.47;48.43;100172.81;5006568;28;20402;-75
2023/01/01 05:45:59;;;;;;;4.28;1.40;;;15.70;94.90;;;14.50;48.67;100191.53;5000781;28;20334;-76
2023/01/01 05:48:24;;;;;;;4.05;1.40;;;15.70;95.30;;;14.50;48.88;100191.53;4996410;28;20034;-76
2023/01/01 05:50:50;;;;;;;9.38;1.98;;;15.80;95.50;;;14.41;49.07;100212.25;5011284;28;20034;-76
2023/01/01 05:53:16;;;;;;;4.70;1.80;;;15.70;95.40;;;14.31;50.23;100214.84;5012620;28;20033;-77
2023/01/01 05:55:41;;;;;;;8.00;1.75;;;15.60;96.20;;;14.42;49.35;100227.66;4997535;28;20050;-76
2023/01/01 05:58:07;;;;;;;5.28;1.20;;;15.70;95.50;;;14.44;49.29;100220.00;5013033;28;20064;-76
2023/01/01 06:00:33;;;;;;;5.07;1.27;;;15.70;95.70;;;14.52;48.53;100244.25;5012035;28;20037;-76
2023/01/01 06:02:58;;;;;;;5.45;1.30;;;15.80;95.30;;;14.53;48.88;100240.41;5006584;28;20038;-76
2023/01/01 06:05:24;;;;;;;6.68;1.60;;;15.80;95.40;;;14.51;48.95;100244.50;5001812;28;20039;-76
2023/01/01 06:07:50;;;;;;;3.65;1.80;;;15.80;95.40;;;14.59;48.39;100233.09;5005927;28;20036;-76
2023/01/01 06:10:15;;;;;;;4.45;1.33;;;15.80;95.10;;;14.50;48.82;100254.66;5006482;28;20045;-76
2023/01/01 06:12:41;;;;;;;4.68;1.60;;;15.80;95.20;;;14.51;48.72;100258.25;5002616;28;20512;-76
2023/01/01 06:15:07;;;;;;;3.45;1.65;;;15.80;95.20;;;14.48;48.90;100256.00;5012173;28;20034;-76
2023/01/01 06:17:33;;;;;;;4.88;1.48;;;15.80;95.40;;;14.46;49.11;100275.44;4998008;28;20124;-75
2023/01/01 06:19:59;;;;;;;7.05;1.35;;;15.80;95.40;;;14.56;48.70;100257.47;4994684;28;20130;-75
2023/01/01 06:22:24;;;;;;;5.88;1.48;;;15.80;95.30;;;14.48;48.76;100254.06;5003898;28;20050;-74
2023/01/01 06:24:50;;;;;;;3.55;1.10;;;15.80;95.30;;;14.30;49.31;100262.56;5004561;28;20334;-76
2023/01/01 06:27:16;;;;;;;5.93;1.42;;;15.60;95.40;;;14.24;49.75;100253.44;5006056;28;20077;-76
2023/01/01 06:29:41;;;;;;;4.25;1.27;;;15.60;95.90;;;14.20;50.10;100241.31;5011487;28;20100;-75
2023/01/01 06:32:07;;;;;;;5.43;1.35;;;15.50;96.20;;;14.26;49.42;100233.97;5005797;28;20494;-74
2023/01/01 06:34:33;;;;;;;4.55;1.20;;;15.50;95.90;;;14.28;49.61;100248.28;5011575;28;20041;-75
2023/01/01 06:36:59;;;;;;;5.13;1.80;;;15.50;96.00;;;14.31;49.29;100240.38;4995926;28;20038;-75
2023/01/01 06:39:24;;;;;;;4.32;1.40;;;15.50;95.60;;;14.32;49.35;100249.44;4992344;28;20398;-74
2023/01/01 06:41:50;;;;;;;4.30;1.38;;;15.60;95.90;;;14.15;50.24;100239.31;4994021;28;20088;-76
2023/01/01 06:44:16;;;;;;;9.93;1.58;;;15.50;96.20;;;14.03;50.76;100246.78;5011938;28;20406;-75
2023/01/01 06:46:41;;;;;;;4.93;1.27;;;15.30;96.50;;;13.98;50.41;100243.97;5027326;28;20042;-75
2023/01/01 06:49:10;;;;;;;5.15;1.35;;;15.30;96.50;;;13.95;50.20;100283.72;5006031;28;20588;-75
2023/01/01 06:51:42;;;;;;;3.33;1.27;;;15.20;96.60;;;13.98;50.72;100283.22;5008644;28;20097;-76
2023/01/01 06:54:10;;;;;;;3.50;1.20;;;15.20;96.70;;;14.03;50.70;100263.25;5015867;28;20077;-75
2023/01/01 06:56:36;;;;;;;5.15;1.20;;;15.30;96.80;;;13.97;50.71;100287.03;5003444;28;20076;-75
2023/01/01 06:59:03;;;;;;;6.57;1.70;;;15.20;96.60;;;14.06;50.25;100295.69;5011361;28;20441;-74
2023/01/01 07:01:34;;;;;;;3.73;1.27;;;15.30;96.50;;;14.05;50.37;100280.28;5007990;28;20393;-76
2023/01/01 07:04:07;;;;;;;4.55;1.20;;;15.40;96.50;;;14.14;50.17;100276.06;5004214;28;20370;-75
2023/01/01 07:06:34;;;;;;;4.50;1.35;;;15.40;96.40;;;14.07;50.46;100286.38;4994700;28;20034;-76
2023/01/01 07:09:00;;;;;;;4.20;1.40;;;15.40;96.50;;;13.94;50.80;100307.56;4993302;28;20037;-75
2023/01/01 07:11:27;;;;;;;3.88;1.00;;;15.30;96.70;;;14.04;51.03;100311.53;5002818;28;20030;-75
2023/01/01 07:13:54;;;;;;;5.80;1.30;;;15.30;96.80;;;13.90;51.02;100317.34;5010771;28;20041;-75
2023/01/01 07:16:21;;;;;;;3.33;1.13;;;15.20;96.80;;;13.90;51.20;100313.75;5006316;28;20383;-76
2023/01/01 07:18:48;;;;;;;3.40;1.30;;;15.20;97.00;;;13.81;51.55;100338.03;5017558;28;20041;-73
2023/01/01 07:21:36;;;;;;;3.10;1.00;;;15.10;97.00;;;13.73;52.07;100330.19;5012522;28;20563;-75
2023/01/01 07:24:04;;;;;;;5.70;1.33;;;15.00;97.50;;;13.74;51.90;100327.22;5007832;28;20110;-75
2023/01/01 07:26:32;;;;;;;4.13;1.20;;;15.00;97.50;;;13.72;51.68;100306.59;5012851;28;20545;-74
2023/01/01 07:29:00;;;;;;;3.65;1.42;;;15.00;97.40;;;13.67;52.22;100348.47;5009256;28;20104;-74
2023/01/01 07:31:25;;;;;;;6.75;1.20;;;15.00;97.70;;;13.61;52.54;100353.00;5002578;28;20046;-75
2023/01/01 07:33:51;;;;;;;4.20;1.42;;;14.90;98.00;;;13.68;52.04;100355.63;5005414;28;20045;-75
2023/01/01 07:36:17;;;;;;;3.08;1.20;;;14.90;97.70;;;13.74;51.70;100354.63;5014868;28;20037;-75
2023/01/01 07:38:42;;;;;;;4.47;1.23;;;15.00;97.40;;;13.71;52.09;100360.59;5007991;28;20038;-75
2023/01/01 07:41:08;;;;;;;5.15;1.48;;;15.00;97.80;;;13.79;51.66;100371.16;5011236;28;20041;-74
2023/01/01 07:43:34;;;;;;;5.80;1.20;;;15.00;97.50;;;13.76;52.05;100357.09;5025647;28;21018;-75
2023/01/01 07:46:00;;;;;;;4.93;1.23;;;15.00;97.70;;;13.82;51.86;100372.59;5010409;28;20041;-75
2023/01/01 07:48:26;;;;;;;3.28;1.20;;;15.10;97.60;;;13.89;51.75;100376.03;5014005;28;20493;-75
2023/01/01 07:50:52;;;;;;;5.18;1.20;;;15.20;97.70;;;13.91;51.57;100382.09;4999810;28;20038;-76
2023/01/01 07:53:18;;;;;;;5.15;1.50;;;15.20;97.40;;;13.89;52.13;100411.66;5002397;28;20038;-76
2023/01/01 07:55:44;;;;;;;5.07;1.38;;;15.20;97.80;;;13.84;51.88;100422.53;5005525;28;20495;-76
2023/01/01 07:58:11;;;;;;;4.82;1.40;;;15.10;97.70;;;13.93;52.18;100407.34;5014373;28;20026;-75
2023/01/01 08:00:38;;;;;;;4.50;1.15;;;15.20;97.80;;;13.93;52.10;100407.34;5010911;28;20045;-75
2023/01/01 08:03:04;;;;;;;5.35;1.60;;;15.20;97.80;;;13.98;51.86;100411.25;5010703;28;20042;-74
2023/01/01 08:05:30;;;;;;;3.92;1.17;;;15.20;97.80;;;13.97;52.18;100440.63;4998885;28;20029;-73
2023/01/01 08:07:55;;;;;;;4.13;1.50;;;15.20;97.70;;;13.93;52.40;100412.84;4980612;28;20041;-74
2023/01/01 08:10:21;;;;;;;5.55;1.80;;;15.20;98.10;;;13.97;52.39;100428.78;5003071;28;20441;-73
2023/01/01 08:12:47;;;;;;;3.90;1.40;;;15.20;97.90;;;13.97;52.92;100420.56;4999509;28;20042;-73
2023/01/01 08:15:14;;;;;;;4.55;1.40;;;15.20;98.60;;;13.89;53.08;100428.13;4997964;28;20049;-74
2023/01/01 08:17:40;;;;;;;3.65;1.60;;;15.20;98.50;;;13.90;52.37;100448.97;5005162;28;20080;-73
2023/01/01 08:20:07;;;;;;;3.53;1.20;;;15.20;97.80;;;14.04;52.20;100433.06;5009181;28;20042;-74
2023/01/01 08:22:32;;;;;;;5.72;1.50;;;15.30;98.10;;;13.98;52.89;100441.44;5007183;28;20490;-74
2023/01/01 08:24:58;;;;;;;5.20;1.60;;;15.30;98.50;;;13.97;53.00;100443.34;5003029;28;20048;-73
2023/01/01 08:27:24;;;;;;;5.95;1.60;;;15.30;98.40;;;14.01;52.29;100447.28;4996121;28;20034;-73
2023/01/01 08:29:50;;;;;;;4.32;1.38;;;15.30;97.80;;;14.02;52.21;100448.09;5005929;28;20030;-73
2023/01/01 08:32:15;;;;;;;3.92;1.20;;;15.30;98.20;;;14.03;51.86;100439.63;4999307;28;20089;-72
2023/01/01 08:34:41;;;;;;;5.95;1.20;;;15.30;97.70;;;14.11;51.96;100446.63;5010334;28;20040;-73
2023/01/01 08:37:13;;;;;;;4.57;1.25;;;15.30;97.80;;;14.04;52.06;100449.53;5005583;28;20042;-73
2023/01/01 08:39:39;;;;;;;4.55;1.45;;;15.30;97.80;;;13.90;53.05;100440.75;5008878;28;20044;-73
2023/01/01 08:42:04;;;;;;;4.10;1.70;;;15.30;98.60;;;13.90;52.70;100448.97;5000214;28;20057;-73
2023/01/01 08:44:30;;;;;;;5.80;1.27;;;15.20;98.30;;;13.88;53.22;100459.34;5004811;28;20406;-73
2023/01/01 08:46:56;;;;;;;6.15;1.40;;;15.20;98.60;;;13.87;53.10;100468.66;5011210;28;20039;-76
2023/01/01 08:49:21;;;;;;;4.47;1.30;;;15.20;98.40;;;13.90;52.63;100472.81;5009803;28;20447;-75
2023/01/01 08:51:47;;;;;;;4.93;1.70;;;15.20;98.30;;;13.92;52.86;100478.88;5003887;28;20448;-74
2023/01/01 08:54:13;;;;;;;3.53;1.30;;;15.10;98.50;;;13.90;53.13;100483.78;4997664;28;20418;-74
2023/01/01 08:56:39;;;;;;;5.07;1.33;;;15.20;98.90;;;13.91;52.84;100500.00;5008275;28;20034;-73
2023/01/01 08:59:05;;;;;;;4.25;1.30;;;15.20;98.30;;;13.92;52.83;100498.91;4995218;28;20042;-75
2023/01/01 09:01:32;;;;;;;4.82;1.40;;;15.20;98.40;;;13.95;52.70;100494.88;5000794;28;20040;-75
2023/01/01 09:03:58;;;;;;;4.95;1.50;;;15.20;98.30;;;13.86;53.11;100510.03;5005643;28;20042;-73
2023/01/01 09:06:23;;;;;;;4.47;1.30;;;15.20;98.50;;;13.88;53.45;100510.59;5009961;28;20048;-73
2023/01/01 09:08:50;;;;;;;6.03;1.50;;;15.20;98.80;;;13.84;53.29;100528.63;5012695;28;20091;-74
2023/01/01 09:11:26;;;;;;;4.30;1.20;;;15.10;98.80;;;13.83;53.35;100530.56;5010150;28;20111;-74
2023/01/01 09:13:53;;;;;;;3.50;1.20;;;15.10;98.60;;;13.82;53.98;100559.03;4996436;28;20041;-74
2023/01/01 09:16:20;;;;;;;4.35;1.20;;;15.10;99.20;;;13.78;54.32;100533.16;5018148;28;20041;-74
2023/01/01 09:18:46;;;;;;;4.20;1.20;;;15.10;99.50;;;13.80;54.03;100544.75;5013140;28;20029;-75
2023/01/01 09:21:12;;;;;;;3.75;1.33;;;15.10;99.30;;;13.85;53.75;100541.25;5012521;28;20046;-74
2023/01/01 09:23:38;;;;;;;4.60;1.10;;;15.10;99.00;;;13.83;53.99;100532.44;5008702;28;20045;-75
2023/01/01 09:26:07;;;;;;;3.30;1.13;;;15.10;99.20;;;13.82;54.84;100537.09;5013393;28;20046;-76
2023/01/01 09:28:33;;;;;;;4.32;1.35;;;15.10;99.70;;;13.75;54.85;100556.44;5017385;28;20128;-75
2023/01/01 09:31:00;;;;;;;6.22;1.27;;;15.00;99.70;;;13.71;55.09;100574.44;5015704;28;20492;-75
2023/01/01 09:33:26;;;;;;;4.65;1.90;;;15.00;99.80;;;13.74;55.41;100584.91;5013202;28;20081;-75
2023/01/01 09:35:52;;;;;;;4.55;1.05;;;15.00;99.90;;;13.67;56.75;100617.09;5012984;28;20029;-74
2023/01/01 09:38:18;;;;;;;2.80;1.13;;;15.00;99.90;;;13.42;60.29;100606.31;4995642;28;20465;-75
2023/01/01 09:41:15;;;;;;;5.25;1.40;;;14.70;99.90;;;13.05;64.51;100635.56;5004871;28;20153;-75
2023/01/01 09:44:05;;;;;;;4.30;1.33;;;14.40;99.90;;;12.76;68.16;100640.81;4994192;28;20076;-74
2023/01/01 09:46:31;;;;;;;4.57;1.15;;;14.10;99.90;;;12.61;69.98;100643.97;5007506;28;20124;-75
2023/01/01 09:49:17;;;;;;;5.32;1.42;;;13.90;99.90;;;12.54;71.37;100661.53;4998472;28;20061;-75
2023/01/01 09:51:48;;;;;;;3.53;1.30;;;13.90;99.90;;;12.51;71.24;100676.50;5009637;28;20093;-74
2023/01/01 09:54:40;;;;;;;3.97;1.42;;;13.80;99.90;;;12.46;72.55;100685.38;5004111;28;20105;-74
2023/01/01 09:57:11;;;;;;;4.43;1.50;;;13.80;99.90;;;12.33;76.08;100691.03;5003692;28;20054;-77
2023/01/01 09:59:39;;;;;;;3.90;1.17;;;13.70;99.90;;;12.04;77.46;100677.84;4998722;28;20038;-74
2023/01/01 10:02:42;;;;;;;4.68;1.58;;;13.60;99.90;;;12.10;77.09;100681.59;4997791;28;20045;-75
2023/01/01 10:05:24;;;;;;;3.47;1.50;;;13.50;99.90;;;12.11;77.93;100682.44;5001192;28;20065;-75
2023/01/01 10:08:09;;;;;;;4.93;1.45;;;13.50;99.90;;;12.07;79.21;100676.56;5010049;28;20117;-75
2023/01/01 10:10:48;;;;;;;4.97;1.40;;;13.40;99.90;;;12.01;80.36;100689.22;5008445;28;20030;-76
2023/01/01 10:13:31;;;;;;;4.70;1.40;;;13.40;99.90;;;11.97;82.57;100698.09;5005881;28;20789;-76
2023/01/01 10:16:22;;;;;;;16.25;8.32;;;13.30;99.90;;;11.68;88.83;100708.66;4993758;28;20048;-77
2023/01/01 10:18:54;;;;;;;4.90;1.60;;;13.10;99.90;;;11.37;92.51;100690.16;5003642;28;20104;-77
2023/01/01 10:21:34;;;;;;;4.22;1.58;;;12.80;99.90;;;11.13;99.06;100699.13;5021119;28;20092;-76
2023/01/01 10:24:23;;;;;;;3.92;1.42;;;12.50;99.90;;;10.94;100.00;100696.31;5009539;28;20057;-76
2023/01/01 10:26:53;;;;;;;4.65;1.55;;;12.30;99.90;;;10.90;100.00;100700.56;5008552;28;20037;-76
2023/01/01 10:29:36;;;;;;;2.90;1.42;;;12.20;99.90;;;10.83;100.00;100697.84;5008596;28;20129;-77
2023/01/01 10:32:20;;;;;;;6.47;2.00;;;12.20;99.90;;;10.82;100.00;100700.78;5000564;28;20542;-76
2023/01/01 10:34:49;;;;;;;5.25;1.73;;;12.10;99.90;;;10.81;100.00;100694.50;5009285;28;20502;-75
2023/01/01 10:37:15;;;;;;;9.20;2.35;;;12.10;99.90;;;10.78;100.00;100698.50;5007593;28;20054;-76